Time;durP1;ratioP1;P1;durP2;ratioP2;P2;SDS_P1;SDS_P2;PMS_P1;PMS_P2;Temp;Humidity;BMP_temperature;BMP_pressure;BME280_temperature;BME280_humidity;BME280_pressure;Samples;Min_cycle;Max_cycle;Signal;HPM_P1;HPM_P2
2023/10/13 00:00:58;;;;;;;16.92;8.32;;;;;;;10.66;100.00;97880.25;5069124;28;20040;-74
2023/10/13 00:03:25;;;;;;;13.75;7.55;;;;;;;10.62;100.00;97884.91;5064861;28;20052;-75
2023/10/13 00:05:52;;;;;;;15.40;8.38;;;;;;;10.52;100.00;97872.16;5068800;28;20532;-74
2023/10/13 00:08:20;;;;;;;17.70;8.48;;;;;;;10.49;100.00;97878.53;5068940;28;20116;-74
2023/10/13 00:10:47;;;;;;;13.82;7.63;;;;;;;10.43;100.00;97873.53;5068878;28;20421;-75
2023/10/13 00:13:15;;;;;;;15.75;8.15;;;;;;;10.42;100.00;97874.50;5068892;28;20119;-75
2023/10/13 00:15:57;;;;;;;14.98;7.88;;;;;;;10.32;100.00;97866.13;5069236;28;20461;-74
2023/10/13 00:18:41;;;;;;;14.73;7.33;;;;;;;10.34;100.00;97879.38;5101776;28;20416;-74
2023/10/13 00:21:24;;;;;;;11.57;7.03;;;;;;;10.35;100.00;97870.44;5084683;28;20040;-75
2023/10/13 00:23:52;;;;;;;15.60;8.20;;;;;;;10.31;100.00;97875.06;5069067;28;20044;-74
2023/10/13 00:26:27;;;;;;;15.65;8.00;;;;;;;10.23;100.00;97860.41;5070072;28;20104;-75
2023/10/13 00:31:38;;;;;;;25.08;8.95;;;;;;;10.20;100.00;97879.31;5069124;28;20029;-74
2023/10/13 00:34:11;;;;;;;16.88;9.57;;;;;;;10.16;100.00;97881.28;5070069;28;20450;-75
2023/10/13 00:36:47;;;;;;;20.88;9.90;;;;;;;10.10;100.00;97878.03;5069287;28;20032;-74
2023/10/13 00:39:15;;;;;;;26.38;10.82;;;;;;;10.15;100.00;97884.03;5073357;28;20322;-75
2023/10/13 00:41:50;;;;;;;15.82;9.90;;;;;;;10.09;100.00;97885.19;5072368;28;20043;-74
2023/10/13 00:44:16;;;;;;;17.83;9.95;;;;;;;10.06;100.00;97882.69;5070054;28;20032;-75
2023/10/13 00:46:44;;;;;;;14.18;8.45;;;;;;;9.97;100.00;97874.28;5072260;28;20024;-75
2023/10/13 00:49:10;;;;;;;14.70;9.18;;;;;;;9.91;100.00;97875.50;5072115;28;20028;-74
2023/10/13 00:51:40;;;;;;;16.92;8.70;;;;;;;9.88;100.00;97878.34;5071948;28;20544;-74
2023/10/13 00:54:12;;;;;;;17.13;8.85;;;;;;;9.90;100.00;97873.78;5071890;28;20028;-74
2023/10/13 00:59:34;;;;;;;17.52;8.85;;;;;;;9.82;100.00;97887.53;5069960;28;20044;-74
2023/10/13 01:02:25;;;;;;;15.48;8.98;;;;;;;9.86;100.00;97877.56;5071894;28;20028;-74
2023/10/13 01:04:46;;;;;;;15.77;8.85;;;;;;;9.86;100.00;97885.59;5068641;28;20487;-74
2023/10/13 01:07:12;;;;;;;17.20;9.50;;;;;;;9.78;100.00;97880.63;5071650;28;20960;-74
2023/10/13 01:09:44;;;;;;;22.13;11.40;;;;;;;9.77;100.00;97878.06;5071881;28;20027;-74
2023/10/13 01:12:10;;;;;;;17.52;11.13;;;;;;;9.78;100.00;97893.16;5055171;28;20487;-74
2023/10/13 01:14:35;;;;;;;16.20;10.13;;;;;;;9.70;100.00;97890.00;5071477;28;20082;-74
2023/10/13 01:17:01;;;;;;;12.77;8.25;;;;;;;9.62;100.00;97900.25;5071647;28;20514;-74
2023/10/13 01:19:27;;;;;;;15.20;9.18;;;;;;;9.60;100.00;97892.28;5071324;28;20040;-75
2023/10/13 01:22:04;;;;;;;18.55;8.05;;;;;;;9.68;100.00;97889.25;5071427;28;20028;-74
2023/10/13 01:24:36;;;;;;;17.48;8.75;;;;;;;9.66;100.00;97888.44;5069724;28;20119;-74
2023/10/13 01:27:17;;;;;;;14.20;8.55;;;;;;;9.59;100.00;97889.72;5072636;28;20032;-75
2023/10/13 01:29:48;;;;;;;15.18;8.27;;;;;;;9.50;100.00;97896.41;5071488;28;20028;-74
2023/10/13 01:32:16;;;;;;;15.77;8.38;;;;;;;9.49;100.00;97889.34;5071228;28;20029;-74
2023/10/13 01:34:45;;;;;;;13.80;8.10;;;;;;;9.44;100.00;97890.53;5054390;28;20119;-75
2023/10/13 01:37:11;;;;;;;12.65;7.90;;;;;;;9.41;100.00;97888.00;5071184;28;20032;-75
2023/10/13 01:39:37;;;;;;;13.02;8.13;;;;;;;9.40;100.00;97889.81;5071070;28;20035;-74
2023/10/13 01:42:03;;;;;;;12.43;7.50;;;;;;;9.41;100.00;97893.34;5071011;28;20111;-74
2023/10/13 01:44:32;;;;;;;17.88;9.00;;;;;;;9.38;100.00;97890.84;5072227;28;20454;-74
2023/10/13 01:47:06;;;;;;;13.23;7.75;;;;;;;9.49;100.00;97893.81;5071392;28;20060;-75
2023/10/13 01:49:52;;;;;;;14.60;8.10;;;;;;;9.45;100.00;97895.78;5070994;28;20028;-76
2023/10/13 01:52:18;;;;;;;14.98;7.70;;;;;;;9.39;100.00;97895.22;5073343;28;20464;-75
2023/10/13 01:54:44;;;;;;;13.60;8.18;;;;;;;9.41;100.00;97891.56;5071928;28;20025;-74
2023/10/13 01:57:17;;;;;;;14.10;8.10;;;;;;;9.33;100.00;97887.53;5070797;28;20033;-75
2023/10/13 01:59:44;;;;;;;12.27;8.40;;;;;;;9.39;100.00;97887.22;5070860;28;20033;-75
2023/10/13 02:02:12;;;;;;;15.02;7.55;;;;;;;9.33;100.00;97887.53;5070730;28;20128;-75
2023/10/13 02:04:48;;;;;;;12.77;7.43;;;;;;;9.33;100.00;97884.84;5070343;28;20044;-73
2023/10/13 02:07:15;;;;;;;15.43;7.45;;;;;;;9.22;100.00;97869.41;5071960;28;20016;-74
2023/10/13 02:09:42;;;;;;;20.00;7.85;;;;;;;9.23;100.00;97868.44;5053867;28;20031;-73
2023/10/13 02:12:09;;;;;;;10.80;7.25;;;;;;;9.19;100.00;97870.44;5070425;28;20032;-76
2023/10/13 02:14:36;;;;;;;11.80;7.30;;;;;;;9.20;100.00;97872.16;5070542;28;20024;-74
2023/10/13 02:17:16;;;;;;;13.75;8.15;;;;;;;9.24;100.00;97870.19;5070447;28;20051;-74
2023/10/13 02:19:45;;;;;;;15.23;8.80;;;;;;;9.24;100.00;97871.06;5071855;28;20041;-75
2023/10/13 02:22:31;;;;;;;26.58;12.77;;;;;;;9.22;100.00;97872.94;5071529;28;20030;-74
2023/10/13 02:25:01;;;;;;;19.15;10.68;;;;;;;9.24;100.00;97878.19;5070219;28;20585;-74
2023/10/13 02:27:27;;;;;;;26.10;11.48;;;;;;;9.25;100.00;97877.25;5071558;28;20020;-73
2023/10/13 02:29:58;;;;;;;27.67;10.80;;;;;;;9.30;100.00;97877.00;5053451;28;20381;-74
2023/10/13 02:32:24;;;;;;;24.52;10.73;;;;;;;9.29;100.00;97880.63;5054062;28;20028;-73
2023/10/13 02:34:50;;;;;;;19.70;10.35;;;;;;;9.30;100.00;97871.66;5070122;28;20089;-74
2023/10/13 02:37:18;;;;;;;26.92;10.45;;;;;;;9.36;100.00;97887.38;5070966;28;20055;-74
2023/10/13 02:39:44;;;;;;;27.35;9.90;;;;;;;9.39;100.00;97887.22;5053828;28;20021;-74
2023/10/13 02:42:23;;;;;;;17.20;9.98;;;;;;;9.42;100.00;97885.25;5086587;28;20047;-73
2023/10/13 02:44:49;;;;;;;22.48;9.48;;;;;;;9.43;100.00;97894.13;5063377;28;20028;-75
2023/10/13 02:47:15;;;;;;;21.70;9.68;;;;;;;9.41;100.00;97896.03;5069643;28;20434;-72
2023/10/13 02:49:46;;;;;;;17.05;10.07;;;;;;;9.49;100.00;97899.16;5069895;28;20033;-75
2023/10/13 02:52:12;;;;;;;18.48;9.98;;;;;;;9.49;100.00;97907.16;5053696;28;20395;-74
2023/10/13 02:54:46;;;;;;;17.52;9.40;;;;;;;9.45;100.00;97903.78;5069697;28;20021;-75
2023/10/13 02:57:15;;;;;;;16.75;10.20;;;;;;;9.37;100.00;97911.34;5069254;28;20032;-74
2023/10/13 02:59:46;;;;;;;14.93;9.40;;;;;;;9.27;100.00;97897.59;5052981;28;20051;-73
2023/10/13 03:02:25;;;;;;;17.88;10.07;;;;;;;9.33;100.00;97900.88;5070300;28;20051;-73
2023/10/13 03:04:59;;;;;;;22.58;9.48;;;;;;;9.24;100.00;97912.88;5054489;28;20056;-73
2023/10/13 03:07:28;;;;;;;17.73;9.10;;;;;;;9.16;100.00;97902.63;5069850;28;20021;-74
2023/10/13 03:09:57;;;;;;;26.98;10.80;;;;;;;9.08;100.00;97920.81;5069864;28;20411;-74
2023/10/13 03:12:24;;;;;;;24.23;12.50;;;;;;;8.91;100.00;97903.91;5052699;28;20032;-74
2023/10/13 03:15:11;;;;;;;18.52;9.48;;;;;;;8.90;100.00;97910.19;5069526;28;20047;-73
2023/10/13 03:17:37;;;;;;;17.15;9.57;;;;;;;8.86;100.00;97909.47;5069477;28;20020;-73
2023/10/13 03:20:05;;;;;;;18.60;9.45;;;;;;;8.86;100.00;97912.13;5069328;28;20089;-74
2023/10/13 03:22:31;;;;;;;18.98;8.95;;;;;;;8.81;100.00;97911.50;5069630;28;20036;-74
2023/10/13 03:25:04;;;;;;;19.27;9.25;;;;;;;8.84;100.00;97906.00;5069235;28;20029;-74
2023/10/13 03:27:47;;;;;;;13.43;8.00;;;;;;;8.75;100.00;97910.94;5067920;28;20024;-74
2023/10/13 03:30:16;;;;;;;;;;;;;;;8.63;100.00;97907.94;5071740;28;20097;-74
2023/10/13 03:32:53;;;;;;;18.27;8.77;;;;;;;8.55;100.00;97909.25;5052899;28;20399;-75
2023/10/13 03:35:27;;;;;;;22.98;9.23;;;;;;;8.63;100.00;97902.59;5069211;28;20032;-81
2023/10/13 03:37:55;;;;;;;21.95;8.98;;;;;;;8.56;100.00;97892.28;5069638;28;20368;-76
2023/10/13 03:45:27;;;;;;;30.80;11.05;;;;;;;8.50;100.00;97879.25;5069624;28;20033;-75
2023/10/13 03:47:53;;;;;;;30.85;14.05;;;;;;;8.54;100.00;97883.53;5051163;28;20032;-75
2023/10/13 03:53:06;;;;;;;26.33;11.38;;;;;;;8.55;100.00;97871.94;5044137;28;20071;-72
2023/10/13 03:55:34;;;;;;;17.63;10.73;;;;;;;8.48;100.00;97881.16;5070299;28;20054;-74
2023/10/13 03:58:00;;;;;;;25.02;10.93;;;;;;;8.45;100.00;97871.50;5068709;28;20491;-73
2023/10/13 04:00:31;;;;;;;18.27;9.57;;;;;;;8.49;100.00;97880.22;5069119;28;20029;-74
2023/10/13 04:05:44;;;;;;;26.30;12.18;;;;;;;8.44;100.00;97879.56;5069019;28;20024;-74
2023/10/13 04:30:52;;;;;;;24.92;11.85;;;;;;;8.70;100.00;97892.50;5072795;28;20090;-74
2023/10/13 04:32:38;;;;;;;26.02;11.93;;;;;;;8.70;100.00;97892.50;5067836;28;20124;-74
2023/10/13 04:38:01;;;;;;;25.58;11.77;;;;;;;8.72;100.00;97901.28;5071943;28;20515;-73
2023/10/13 04:40:35;;;;;;;20.85;12.38;;;;;;;8.66;100.00;97901.59;5057914;28;20046;-73
2023/10/13 04:43:04;;;;;;;25.02;15.45;;;;;;;8.56;100.00;97910.97;5056142;28;20101;-72
2023/10/13 04:48:12;;;;;;;20.55;12.18;;;;;;;8.54;100.00;97916.38;5052061;28;20036;-71
2023/10/13 04:50:44;;;;;;;22.63;12.07;;;;;;;8.53;100.00;97909.31;5068243;28;20028;-73
2023/10/13 04:53:27;;;;;;;20.77;12.43;;;;;;;8.54;100.00;97920.84;5073017;28;20043;-72
2023/10/13 04:59:15;;;;;;;28.02;11.90;;;;;;;8.37;100.00;97920.75;5071724;28;20032;-72
2023/10/13 05:44:37;;;;;;;26.33;10.50;;;;;;;17.01;100.00;97914.72;5071137;28;20035;-73
2023/10/13 05:50:05;;;;;;;25.38;10.02;;;;;;;19.15;92.49;97907.78;5063500;28;20102;-73
2023/10/13 06:30:58;;;;;;;31.10;12.93;;;;;;;22.28;69.64;97941.53;5070488;28;20052;-72
2023/10/13 06:33:28;;;;;;;33.72;12.40;;;;;;;22.27;68.86;97939.81;5070791;28;20431;-71
2023/10/13 06:35:56;;;;;;;34.35;11.63;;;;;;;22.96;63.94;97937.06;5053632;28;20025;-72
2023/10/13 06:38:22;;;;;;;25.23;11.88;;;;;;;23.03;63.46;97936.25;5071063;28;20032;-73
2023/10/13 06:40:50;;;;;;;24.52;11.10;;;;;;;23.03;63.32;97932.66;5069383;28;20029;-73
2023/10/13 06:43:16;;;;;;;23.13;9.80;;;;;;;22.86;65.78;97948.09;5053061;28;20102;-72
2023/10/13 06:45:56;;;;;;;19.67;9.80;;;;;;;22.57;68.72;97942.09;5070737;28;20024;-73
2023/10/13 06:48:24;;;;;;;20.63;11.13;;;;;;;23.46;63.83;97924.34;5054151;28;20076;-73
2023/10/13 06:50:52;;;;;;;33.88;11.85;;;;;;;23.84;61.77;97914.69;5069224;28;20040;-73
2023/10/13 06:53:18;;;;;;;28.65;11.75;;;;;;;24.41;58.37;97909.25;5052729;28;20037;-74
2023/10/13 06:55:46;;;;;;;16.83;9.73;;;;;;;24.31;58.21;97901.22;5070667;28;20111;-74
2023/10/13 06:58:13;;;;;;;25.40;10.02;;;;;;;23.97;59.74;97905.97;5070322;28;20073;-74
2023/10/13 07:00:52;;;;;;;27.70;11.00;;;;;;;24.37;58.62;97907.88;5070793;28;20111;-73
2023/10/13 07:03:19;;;;;;;29.45;13.85;;;;;;;24.66;56.72;97909.06;5052987;28;20033;-73
2023/10/13 07:05:47;;;;;;;25.80;13.98;;;;;;;24.16;57.29;97912.00;5069051;28;20033;-73
2023/10/13 07:08:19;;;;;;;42.55;18.55;;;;;;;23.69;61.04;97909.03;5069377;28;20090;-73
2023/10/13 07:10:51;;;;;;;;;;;;;;;23.91;58.73;97906.66;5070026;28;20024;-73
2023/10/13 07:13:17;;;;;;;29.52;13.68;;;;;;;23.70;62.19;97915.34;5068701;28;19923;-71
2023/10/13 07:15:46;;;;;;;21.45;13.00;;;;;;;23.18;65.62;97929.16;5070450;28;20112;-73
2023/10/13 07:18:13;;;;;;;21.33;11.60;;;;;;;23.07;66.66;97926.72;5070064;28;20080;-71
2023/10/13 07:20:43;;;;;;;20.67;11.82;;;;;;;24.13;61.02;97912.34;5068841;28;20054;-71
2023/10/13 07:23:17;;;;;;;19.75;10.98;;;;;;;24.55;58.81;97914.03;5070583;28;20510;-72
2023/10/13 07:25:55;;;;;;;20.85;10.00;;;;;;;25.65;53.86;97894.84;5052817;28;20059;-72
2023/10/13 07:28:21;;;;;;;20.05;10.43;;;;;;;26.27;52.12;97890.13;5068803;28;20048;-72
2023/10/13 07:33:22;;;;;;;;;;;;;;;26.88;48.70;97889.03;5069509;28;20020;-72
2023/10/13 07:35:58;;;;;;;24.60;10.30;;;;;;;26.59;49.25;97894.44;5069940;28;19912;-73
2023/10/13 07:38:25;;;;;;;20.77;11.15;;;;;;;27.20;47.64;97888.63;5068881;28;20112;-73
2023/10/13 07:40:51;;;;;;;34.80;10.40;;;;;;;26.77;48.87;97893.03;5070066;28;20428;-73
2023/10/13 07:43:21;;;;;;;28.80;9.23;;;;;;;27.04;48.35;97893.47;5070750;28;20029;-72
2023/10/13 07:45:51;;;;;;;80.40;10.38;;;;;;;26.40;49.87;97898.56;5089060;28;20365;-73
2023/10/13 07:48:20;;;;;;;65.65;10.32;;;;;;;26.61;49.25;97898.69;5056680;28;20036;-72
2023/10/13 07:51:15;;;;;;;61.22;10.25;;;;;;;25.03;52.51;97903.00;5072754;28;20506;-72
2023/10/13 07:53:43;;;;;;;44.13;8.95;;;;;;;25.20;53.59;97901.03;5057035;28;20036;-72
2023/10/13 07:56:11;;;;;;;52.65;8.90;;;;;;;25.01;53.99;97905.03;5072838;28;20040;-72
2023/10/13 07:58:52;;;;;;;50.50;8.27;;;;;;;25.13;54.18;97900.88;5072817;28;20031;-73
2023/10/13 08:01:19;;;;;;;31.52;8.02;;;;;;;25.43;53.47;97890.13;5072940;28;20027;-73
2023/10/13 08:03:56;;;;;;;32.60;9.13;;;;;;;25.77;52.03;97890.66;5072449;28;20533;-72
2023/10/13 08:06:28;;;;;;;25.23;7.72;;;;;;;25.17;53.42;97891.28;5056864;28;20052;-73
2023/10/13 08:08:55;;;;;;;18.60;8.65;;;;;;;24.77;56.15;97899.59;5073086;28;20069;-71
2023/10/13 08:13:58;;;;;;;27.60;8.20;;;;;;;24.20;59.01;97910.66;5072386;28;20055;-71
2023/10/13 08:16:29;;;;;;;13.43;8.02;;;;;;;24.82;57.01;97913.69;5072435;28;20035;-72
2023/10/13 08:18:55;;;;;;;12.40;8.10;;;;;;;24.73;56.48;97912.78;5072011;28;20523;-72
2023/10/13 08:21:24;;;;;;;15.40;8.10;;;;;;;25.73;54.18;97905.75;5072444;28;20033;-73
2023/10/13 08:48:12;;;;;;;16.15;6.13;;;;;;;30.04;40.45;97866.78;5072884;28;20120;-72
2023/10/13 08:53:44;;;;;;;12.48;6.03;;;;;;;29.74;40.33;97870.06;5071540;28;20044;-71
2023/10/13 09:04:20;;;;;;;9.73;4.40;;;;;;;32.54;34.56;97853.03;5071349;28;20036;-72
2023/10/13 09:07:00;;;;;;;8.45;4.70;;;;;;;33.51;32.96;97851.38;5088128;28;20549;-72
2023/10/13 09:09:41;;;;;;;8.70;4.53;;;;;;;31.33;35.13;97845.00;5088215;28;20127;-72
2023/10/13 09:12:35;;;;;;;6.67;4.53;;;;;;;31.12;35.74;97844.22;5071448;28;20020;-71
2023/10/13 09:17:51;;;;;;;11.90;4.93;;;;;;;32.87;34.44;97841.66;5071361;28;20032;-71
2023/10/13 09:23:07;;;;;;;8.82;4.82;;;;;;;33.50;32.77;97828.31;5071087;28;20028;-71
2023/10/13 09:25:53;;;;;;;12.38;4.85;;;;;;;33.12;33.00;97825.84;5070711;28;20415;-71
2023/10/13 09:28:22;;;;;;;11.25;5.00;;;;;;;32.05;34.59;97826.16;5070777;28;20495;-71
2023/10/13 09:30:52;;;;;;;18.90;5.97;;;;;;;32.27;34.55;97823.81;5070847;28;20468;-71
2023/10/13 09:33:45;;;;;;;21.67;9.65;;;;;;;32.57;33.87;97815.72;5087512;28;20128;-72
2023/10/13 09:36:12;;;;;;;13.32;6.13;;;;;;;32.38;33.47;97817.56;5085221;28;20063;-71
2023/10/13 09:38:40;;;;;;;10.18;5.00;;;;;;;30.73;35.36;97815.81;5072050;28;20024;-71
2023/10/13 09:41:21;;;;;;;11.63;6.15;;;;;;;30.28;36.29;97831.31;5070663;28;20093;-72
2023/10/13 09:43:47;;;;;;;16.77;6.43;;;;;;;30.28;36.82;97825.78;5070527;28;20037;-71
2023/10/13 09:46:23;;;;;;;29.25;11.15;;;;;;;30.47;37.05;97822.22;5070439;28;20548;-71
2023/10/13 09:49:04;;;;;;;14.77;6.30;;;;;;;31.10;36.61;97817.88;5070640;28;20063;-72
2023/10/13 09:51:31;;;;;;;11.57;5.47;;;;;;;31.98;35.07;97811.47;5071675;28;20506;-72
2023/10/13 09:54:19;;;;;;;7.22;5.10;;;;;;;32.20;34.74;97809.19;5070535;28;20267;-72
2023/10/13 09:56:55;;;;;;;12.63;5.43;;;;;;;32.35;34.02;97803.31;5070503;28;20094;-72
2023/10/13 09:59:34;;;;;;;10.65;4.72;;;;;;;31.98;34.06;97794.84;5070174;28;20020;-72
2023/10/13 10:02:08;;;;;;;8.75;4.55;;;;;;;31.94;34.30;97795.50;5087095;28;20491;-72
2023/10/13 10:04:51;;;;;;;8.18;3.92;;;;;;;33.10;32.37;97789.16;5070178;28;20032;-72
2023/10/13 10:07:29;;;;;;;8.77;4.25;;;;;;;34.19;31.07;97788.09;5070051;28;20024;-71
2023/10/13 10:10:03;;;;;;;7.90;4.20;;;;;;;36.26;29.25;97779.59;5069999;28;20028;-71
2023/10/13 10:12:50;;;;;;;12.13;4.80;;;;;;;36.84;28.35;97769.94;5071590;28;20102;-71
2023/10/13 10:15:35;;;;;;;6.93;4.50;;;;;;;36.50;28.03;97773.81;5069902;28;20489;-71
2023/10/13 10:18:01;;;;;;;7.38;4.10;;;;;;;35.64;28.12;97763.91;5069812;28;20044;-72
2023/10/13 10:20:47;;;;;;;6.07;3.78;;;;;;;35.32;28.07;97747.66;5071046;28;20495;-71
2023/10/13 10:23:28;;;;;;;8.80;3.83;;;;;;;35.72;27.51;97736.50;5054817;28;20025;-70
2023/10/13 10:26:08;;;;;;;6.18;3.42;;;;;;;35.82;27.67;97747.84;5066514;28;20036;-71
2023/10/13 10:28:41;;;;;;;10.95;4.45;;;;;;;36.42;26.84;97741.66;5070244;28;20028;-71
2023/10/13 10:31:19;;;;;;;6.57;3.55;;;;;;;35.87;27.85;97735.97;5069598;28;20025;-71
2023/10/13 10:33:50;;;;;;;10.52;3.60;;;;;;;34.98;28.23;97747.75;5054582;28;20028;-72
2023/10/13 10:36:17;;;;;;;6.68;3.75;;;;;;;34.38;28.79;97748.00;5069847;28;20099;-72
2023/10/13 10:39:05;;;;;;;8.65;3.33;;;;;;;33.98;28.30;97741.41;5069627;28;20428;-71
2023/10/13 10:41:45;;;;;;;6.55;3.30;;;;;;;33.21;29.06;97741.22;5069597;28;20047;-71
2023/10/13 10:44:23;;;;;;;5.38;3.08;;;;;;;35.39;27.38;97736.38;5069633;28;20013;-71
2023/10/13 10:46:56;;;;;;;12.45;3.35;;;;;;;37.87;24.88;97736.34;5070797;28;20025;-71
2023/10/13 10:49:31;;;;;;;16.25;5.05;;;;;;;37.52;25.46;97724.81;5070442;28;20476;-71
2023/10/13 10:52:04;;;;;;;21.02;9.63;;;;;;;37.53;25.67;97736.84;5070576;28;20085;-71
2023/10/13 10:54:31;;;;;;;8.80;5.53;;;;;;;37.13;26.47;97737.16;5069554;28;20028;-71
2023/10/13 10:57:10;;;;;;;7.53;3.13;;;;;;;36.69;25.68;97723.13;5085984;28;20074;-71
2023/10/13 10:59:39;;;;;;;8.77;4.63;;;;;;;36.02;26.72;97727.00;5085831;28;20028;-71
2023/10/13 11:02:06;;;;;;;12.18;3.42;;;;;;;36.35;26.11;97725.09;5069128;28;20062;-71
2023/10/13 11:04:40;;;;;;;7.65;3.28;;;;;;;36.71;25.56;97722.88;5070219;28;20034;-71
2023/10/13 11:07:06;;;;;;;13.85;3.95;;;;;;;37.55;25.42;97718.69;5085983;28;20077;-70
2023/10/13 11:12:23;;;;;;;5.43;3.00;;;;;;;37.22;25.29;97711.31;5065951;28;20411;-71
2023/10/13 11:15:33;;;;;;;10.90;3.70;;;;;;;38.02;24.92;97710.53;5067581;28;20142;-71
2023/10/13 11:17:59;;;;;;;10.50;3.97;;;;;;;37.16;24.93;97709.56;5065369;28;20136;-72
2023/10/13 11:20:35;;;;;;;13.10;3.95;;;;;;;38.53;24.47;97714.59;5067512;28;20043;-72
2023/10/13 11:23:13;;;;;;;4.50;2.70;;;;;;;39.35;23.51;97703.59;5066111;28;20028;-71
2023/10/13 11:25:39;;;;;;;4.55;2.80;;;;;;;38.79;23.53;97694.09;5066167;28;20064;-73
2023/10/13 11:28:28;;;;;;;9.25;3.45;;;;;;;38.21;23.92;97703.41;5065991;28;20059;-72
2023/10/13 11:30:58;;;;;;;13.68;2.75;;;;;;;39.06;23.60;97693.09;5066178;28;20412;-72
2023/10/13 11:33:26;;;;;;;5.20;3.57;;;;;;;37.24;25.14;97694.31;5082733;28;20119;-73
2023/10/13 11:35:55;;;;;;;11.77;3.50;;;;;;;36.39;26.30;97695.59;5065726;28;20036;-73
2023/10/13 11:38:29;;;;;;;15.40;3.25;;;;;;;35.59;26.87;97694.22;5066008;28;20036;-71
2023/10/13 11:43:35;;;;;;;6.10;2.95;;;;;;;37.20;25.34;97687.53;5066530;28;20040;-71
2023/10/13 11:48:36;;;;;;;5.70;2.78;;;;;;;39.00;23.12;97673.50;5067126;28;20036;-71
2023/10/13 11:51:31;;;;;;;8.20;2.95;;;;;;;38.91;23.73;97669.53;5066053;28;20016;-71
2023/10/13 11:53:58;;;;;;;8.43;3.25;;;;;;;38.62;23.56;97661.78;5062547;28;20108;-71
2023/10/13 11:56:24;;;;;;;14.60;3.13;;;;;;;37.18;24.52;97673.00;5065541;28;20524;-70
2023/10/13 11:58:50;;;;;;;12.13;3.33;;;;;;;37.12;25.03;97668.47;5066021;28;20032;-70
2023/10/13 12:01:20;;;;;;;7.03;2.90;;;;;;;37.43;24.41;97664.94;5082446;28;20352;-71
2023/10/13 12:11:54;;;;;;;7.28;2.30;;;;;;;36.35;24.69;97657.34;5066898;28;20492;-71
2023/10/13 12:14:21;;;;;;;6.63;2.25;;;;;;;36.33;24.31;97652.03;5065626;28;20089;-71
2023/10/13 12:16:51;;;;;;;4.13;2.00;;;;;;;35.14;25.54;97655.19;5065656;28;20036;-71
2023/10/13 12:19:17;;;;;;;4.32;2.38;;;;;;;35.82;25.17;97657.88;5066745;28;20072;-70
2023/10/13 12:21:48;;;;;;;27.23;4.45;;;;;;;35.96;25.25;97661.16;5065470;28;20513;-71
2023/10/13 12:24:30;;;;;;;3.37;1.77;;;;;;;35.96;24.82;97655.59;5065851;28;20051;-71
2023/10/13 12:26:57;;;;;;;10.50;2.35;;;;;;;37.04;24.42;97660.59;5051238;28;20024;-71
2023/10/13 12:29:28;;;;;;;7.28;1.80;;;;;;;37.70;23.89;97656.56;5067393;28;20021;-72
2023/10/13 12:32:12;;;;;;;7.60;2.40;;;;;;;37.71;23.36;97644.28;5070875;28;20447;-71
2023/10/13 12:37:52;;;;;;;10.95;2.75;;;;;;;37.84;23.43;97647.47;5069600;28;20173;-71
2023/10/13 12:51:20;;;;;;;9.18;4.70;;;;;;;35.79;25.03;97639.72;5069558;28;20134;-71
2023/10/13 12:53:49;;;;;;;7.82;2.60;;;;;;;36.37;24.73;97644.84;5070120;28;20033;-71
2023/10/13 12:56:15;;;;;;;9.25;2.20;;;;;;;36.22;25.01;97643.78;5051982;28;20415;-71
2023/10/13 12:58:42;;;;;;;7.80;2.67;;;;;;;36.50;24.86;97640.00;5069747;28;20052;-71
2023/10/13 13:01:08;;;;;;;6.90;2.85;;;;;;;36.37;24.51;97641.22;5068653;28;20028;-70
2023/10/13 13:03:34;;;;;;;6.18;2.45;;;;;;;36.37;24.76;97647.63;5068754;28;20032;-70
2023/10/13 13:06:07;;;;;;;7.65;2.88;;;;;;;36.54;24.58;97635.63;5051783;28;20052;-71
2023/10/13 13:08:35;;;;;;;8.88;3.55;;;;;;;37.05;24.91;97637.13;5069684;28;20031;-71
2023/10/13 13:11:01;;;;;;;7.20;2.40;;;;;;;36.34;24.92;97636.13;5068286;28;20032;-71
2023/10/13 13:13:27;;;;;;;5.65;2.60;;;;;;;35.02;26.18;97632.09;5068737;28;20105;-70
2023/10/13 13:15:53;;;;;;;7.05;2.90;;;;;;;36.03;25.50;97629.22;5068326;28;20024;-71
2023/10/13 13:18:19;;;;;;;8.48;2.75;;;;;;;36.61;25.23;97636.28;5068453;28;20136;-70
2023/10/13 13:20:54;;;;;;;8.40;2.97;;;;;;;36.09;25.40;97632.97;5069367;28;20025;-71
2023/10/13 13:23:26;;;;;;;10.45;3.28;;;;;;;35.94;25.24;97638.28;5068230;28;20804;-71
2023/10/13 13:25:52;;;;;;;10.30;2.75;;;;;;;33.85;26.58;97622.22;5084762;28;20024;-70
2023/10/13 13:28:18;;;;;;;11.10;2.60;;;;;;;33.73;26.57;97627.78;5068285;28;20087;-70
2023/10/13 13:30:46;;;;;;;5.60;2.80;;;;;;;34.49;26.35;97619.28;5069407;28;20503;-71
2023/10/13 13:33:11;;;;;;;10.93;3.42;;;;;;;34.49;26.09;97624.84;5069630;28;20411;-70
2023/10/13 13:35:42;;;;;;;9.77;3.65;;;;;;;33.25;27.40;97630.66;5068905;28;20040;-70
2023/10/13 13:38:22;;;;;;;5.07;2.37;;;;;;;33.77;26.53;97638.16;5068293;28;20071;-71
2023/10/13 13:40:53;;;;;;;8.50;2.40;;;;;;;34.91;26.15;97630.22;5082985;28;20275;-70
2023/10/13 13:43:40;;;;;;;8.30;2.63;;;;;;;34.12;26.99;97632.63;5068690;28;20105;-71
2023/10/13 13:46:10;;;;;;;11.18;2.92;;;;;;;35.02;26.10;97629.31;5067686;28;20024;-71
2023/10/13 13:48:40;;;;;;;10.90;3.40;;;;;;;34.56;26.66;97625.56;5069012;28;20033;-71
2023/10/13 13:51:14;;;;;;;10.10;3.00;;;;;;;35.00;25.83;97623.16;5067595;28;20116;-71
2023/10/13 13:53:44;;;;;;;7.90;2.70;;;;;;;35.73;25.65;97634.31;5067994;28;20499;-71
2023/10/13 13:56:11;;;;;;;7.37;3.23;;;;;;;35.80;25.69;97630.28;5068860;28;20035;-71
2023/10/13 13:58:38;;;;;;;4.90;2.85;;;;;;;35.68;25.42;97634.25;5084545;28;20071;-72
2023/10/13 14:01:14;;;;;;;12.93;2.88;;;;;;;35.19;25.29;97630.25;5068569;28;20020;-72
2023/10/13 14:03:45;;;;;;;7.38;3.08;;;;;;;35.31;25.60;97620.75;5067853;28;20463;-71
2023/10/13 14:06:24;;;;;;;7.32;2.67;;;;;;;35.85;25.02;97627.56;5067379;28;20108;-71
2023/10/13 14:08:56;;;;;;;10.05;2.90;;;;;;;36.16;24.98;97626.13;5083066;28;20025;-71
2023/10/13 14:14:33;;;;;;;9.77;3.10;;;;;;;36.46;24.58;97627.66;5083236;28;20123;-72
2023/10/13 14:17:08;;;;;;;12.57;3.33;;;;;;;36.23;24.75;97625.97;5068630;28;20500;-70
2023/10/13 14:19:34;;;;;;;9.60;3.30;;;;;;;35.38;24.89;97618.66;5066726;28;20056;-71
2023/10/13 14:22:06;;;;;;;9.02;2.80;;;;;;;35.04;25.42;97621.59;5067317;28;20078;-71
2023/10/13 14:24:34;;;;;;;12.23;2.97;;;;;;;34.65;26.40;97632.47;5067182;28;20025;-71
2023/10/13 14:27:08;;;;;;;9.13;3.75;;;;;;;33.94;27.02;97637.44;5067109;28;20171;-71
2023/10/13 14:29:42;;;;;;;21.45;3.65;;;;;;;32.73;28.39;97629.44;5068397;28;20043;-71
2023/10/13 14:32:13;;;;;;;10.68;4.13;;;;;;;31.96;29.44;97632.84;5082676;28;20484;-71
2023/10/13 14:34:43;;;;;;;11.82;3.92;;;;;;;31.31;30.77;97640.59;5066876;28;20036;-71
2023/10/13 14:37:12;;;;;;;33.60;17.67;;;;;;;30.71;31.36;97652.16;5066420;28;20037;-71
2023/10/13 14:39:38;;;;;;;13.93;6.30;;;;;;;30.02;32.49;97648.09;5066954;28;20028;-71
2023/10/13 14:42:07;;;;;;;9.32;3.83;;;;;;;29.55;33.27;97654.69;5068071;28;20094;-71
2023/10/13 14:44:37;;;;;;;13.50;5.63;;;;;;;28.98;34.10;97644.19;5067841;28;20040;-71
2023/10/13 14:47:05;;;;;;;22.23;4.47;;;;;;;28.49;34.67;97649.94;5067903;28;20500;-70
2023/10/13 14:49:30;;;;;;;13.25;3.90;;;;;;;28.11;35.72;97654.19;5066362;28;20033;-73
2023/10/13 14:51:59;;;;;;;15.65;4.00;;;;;;;27.72;35.92;97656.63;5067288;28;20170;-71
2023/10/13 14:54:33;;;;;;;11.40;3.42;;;;;;;27.34;36.45;97654.19;5067613;28;20628;-71
2023/10/13 14:57:03;;;;;;;13.43;4.15;;;;;;;27.08;36.80;97659.41;5066378;28;20115;-72
2023/10/13 14:59:33;;;;;;;12.88;3.60;;;;;;;26.82;37.75;97654.50;5065985;28;20031;-71
2023/10/13 15:02:01;;;;;;;34.95;14.23;;;;;;;26.66;38.29;97654.69;5066457;28;20028;-71
2023/10/13 15:04:28;;;;;;;15.57;4.10;;;;;;;26.46;38.90;97661.81;5065894;28;20024;-72
2023/10/13 15:06:55;;;;;;;12.07;4.22;;;;;;;26.23;39.37;97664.72;5067683;28;20025;-72
2023/10/13 15:09:23;;;;;;;12.98;4.47;;;;;;;26.02;40.28;97661.84;5065986;28;20044;-73
2023/10/13 15:11:53;;;;;;;16.17;4.10;;;;;;;25.81;40.39;97665.31;5066376;28;20518;-72
2023/10/13 15:14:20;;;;;;;17.67;4.13;;;;;;;25.66;41.65;97677.28;5068403;28;20048;-72
2023/10/13 15:16:46;;;;;;;26.77;5.35;;;;;;;25.44;41.93;97686.38;5068297;28;20480;-72